createdAt,value
2023-03-26T08:57:08.592Z,99845.34
2023-03-26T08:58:39.587Z,99845.41
2023-03-26T09:00:15.757Z,99845.44
2023-03-26T09:01:50.522Z,99842.94
2023-03-26T09:03:03.697Z,99846.38
2023-03-26T09:04:23.015Z,99843.03
2023-03-26T09:06:11.533Z,99846.56
2023-03-26T09:07:29.139Z,99845.72
2023-03-26T09:08:59.260Z,99845.75
2023-03-26T09:10:29.323Z,99843.19
2023-03-26T09:11:42.966Z,99848.38
2023-03-26T09:13:10.886Z,99842.38
2023-03-26T09:14:17.472Z,99838.91
2023-03-26T09:15:37.551Z,99842.34
2023-03-26T09:16:55.191Z,99832.09
2023-03-26T09:18:08.953Z,99837.38
2023-03-26T09:19:22.166Z,99836.44
2023-03-26T09:20:30.859Z,99821.53
2023-03-26T09:21:43.788Z,99825.84
2023-03-26T09:23:14.019Z,99829.41
2023-03-26T09:24:35.431Z,99822.63
2023-03-26T09:25:56.379Z,99820.94
2023-03-26T09:26:51.393Z,99820.78
2023-03-26T09:28:07.700Z,99822.50
2023-03-26T09:29:02.222Z,99815.56
2023-03-26T09:30:17.507Z,99812.13
2023-03-26T09:31:46.689Z,99813.06
2023-03-26T09:32:59.362Z,99810.56
2023-03-26T09:34:00.196Z,99816.66
2023-03-26T09:35:01.496Z,99809.78
2023-03-26T09:36:14.686Z,99807.19
2023-03-26T09:37:24.657Z,99799.25
2023-03-26T09:38:40.367Z,99806.28
2023-03-26T09:40:18.833Z,99798.56
2023-03-26T09:41:22.859Z,99801.16
2023-03-26T09:42:41.240Z,99800.56
2023-03-26T09:43:54.560Z,99794.69
2023-03-26T09:45:09.163Z,99787.97
2023-03-26T09:46:26.503Z,99790.44
2023-03-26T09:47:29.978Z,99780.97
2023-03-26T09:48:57.799Z,99786.06
2023-03-26T09:50:02.853Z,99784.22
2023-03-26T09:51:03.487Z,99782.53
2023-03-26T09:52:05.772Z,99785.13
2023-03-26T09:53:20.717Z,99778.28
2023-03-26T09:54:44.126Z,99779.97
2023-03-26T09:55:54.200Z,99767.00
2023-03-26T09:57:03.360Z,99773.91
2023-03-26T09:57:58.345Z,99768.81
2023-03-26T09:59:09.636Z,99764.47
2023-03-26T10:00:22.684Z,99763.66
2023-03-26T10:01:38.413Z,99767.09
2023-03-26T10:02:46.265Z,99761.13
2023-03-26T10:03:48.105Z,99764.53
2023-03-26T10:05:10.348Z,99761.06
2023-03-26T10:06:11.850Z,99760.38
2023-03-26T10:07:12.606Z,99767.22
2023-03-26T10:08:37.863Z,99756.81
2023-03-26T10:09:51.140Z,99759.47
2023-03-26T10:11:07.005Z,99756.22
2023-03-26T10:12:32.541Z,99751.09
2023-03-26T10:13:47.327Z,99745.13
2023-03-26T10:14:45.210Z,99744.44
2023-03-26T10:15:54.093Z,99747.06
2023-03-26T10:17:07.077Z,99747.03
2023-03-26T10:18:27.600Z,99742.66
2023-03-26T10:19:39.309Z,99735.84
2023-03-26T10:20:56.183Z,99735.72
2023-03-26T10:22:04.760Z,99736.56
2023-03-26T10:22:56.084Z,99734.13
2023-03-26T10:23:59.605Z,99734.09
2023-03-26T10:25:05.543Z,99728.91
2023-03-26T10:26:24.709Z,99729.72
2023-03-26T10:27:55.994Z,99731.44
2023-03-26T10:29:20.531Z,99731.44
2023-03-26T10:30:18.166Z,99729.56
2023-03-26T10:31:28.269Z,99728.06
2023-03-26T10:32:38.160Z,99723.75
2023-03-26T10:33:45.340Z,99720.31
2023-03-26T10:35:01.516Z,99725.47
2023-03-26T10:36:23.180Z,99720.50
2023-03-26T10:37:27.837Z,99722.22
2023-03-26T10:38:51.725Z,99711.88
2023-03-26T10:40:07.888Z,99713.50
2023-03-26T10:41:12.536Z,99716.03
2023-03-26T10:42:28.559Z,99711.84
2023-03-26T10:43:38.257Z,99708.38
2023-03-26T10:44:54.434Z,99710.94
2023-03-26T10:46:09.987Z,99710.84
2023-03-26T10:47:38.926Z,99706.47
2023-03-26T10:48:55.673Z,99712.56
2023-03-26T10:50:22.924Z,99703.06
2023-03-26T10:51:34.830Z,99701.53
2023-03-26T10:52:38.902Z,99702.56
2023-03-26T10:53:48.704Z,99699.16
2023-03-26T10:54:40.136Z,99699.13
2023-03-26T10:55:39.297Z,99701.72
2023-03-26T10:56:49.686Z,99699.09
2023-03-26T10:57:48.868Z,99698.22
2023-03-26T10:58:48.757Z,99701.69
2023-03-26T10:59:42.043Z,99693.16
2023-03-26T11:00:42.278Z,99698.34
2023-03-26T11:01:51.500Z,99700.09
2023-03-26T11:03:10.081Z,99689.88
2023-03-26T11:04:20.123Z,99694.34
2023-03-26T11:05:38.601Z,99692.75
2023-03-26T11:06:45.321Z,99697.16
2023-03-26T11:07:55.950Z,99690.25
2023-03-26T11:08:53.295Z,99692.03
2023-03-26T11:10:02.253Z,99687.81
2023-03-26T11:11:01.650Z,99680.94
2023-03-26T11:12:27.889Z,99682.75
2023-03-26T11:13:29.743Z,99679.28
2023-03-26T11:14:51.918Z,99679.34
2023-03-26T11:15:55.704Z,99675.03
2023-03-26T11:17:06.128Z,99672.41
2023-03-26T11:18:16.471Z,99674.06
2023-03-26T11:19:23.225Z,99674.91
2023-03-26T11:20:24.471Z,99671.50
2023-03-26T11:21:35.963Z,99668.09
2023-03-26T11:22:43.893Z,99661.13
2023-03-26T11:24:04.731Z,99662.91
2023-03-26T11:25:26.453Z,99663.81
2023-03-26T11:26:34.077Z,99659.53
2023-03-26T11:27:26.572Z,99660.38
2023-03-26T11:28:28.531Z,99657.00
2023-03-26T11:29:45.615Z,99664.81
2023-03-26T11:30:43.906Z,99659.59
2023-03-26T11:31:53.884Z,99666.47
2023-03-26T11:32:54.575Z,99653.53
2023-03-26T11:33:56.448Z,99654.38
2023-03-26T11:34:53.709Z,99663.06
2023-03-26T11:35:52.636Z,99658.72
2023-03-26T11:36:53.593Z,99661.25
2023-03-26T11:37:54.284Z,99659.47
2023-03-26T11:38:50.049Z,99659.47
2023-03-26T11:39:58.291Z,99656.00
2023-03-26T11:40:55.422Z,99659.38
2023-03-26T11:42:22.008Z,99655.13
2023-03-26T11:43:17.080Z,99656.88
2023-03-26T11:44:23.347Z,99652.53
2023-03-26T11:45:21.954Z,99656.06
2023-03-26T11:46:20.857Z,99656.94
2023-03-26T11:47:18.783Z,99649.13
2023-03-26T11:48:29.020Z,99653.44
2023-03-26T11:49:22.897Z,99652.47
2023-03-26T11:50:30.377Z,99649.84
2023-03-26T11:51:33.808Z,99656.75
2023-03-26T11:52:26.659Z,99647.19
2023-03-26T11:53:22.064Z,99653.25
2023-03-26T11:54:13.911Z,99651.56
2023-03-26T11:55:06.552Z,99652.47
2023-03-26T11:56:04.128Z,99652.41
2023-03-26T11:57:06.473Z,99655.81
2023-03-26T11:58:01.396Z,99652.31
2023-03-26T11:59:05.348Z,99652.31
2023-03-26T12:00:21.036Z,99652.41
2023-03-26T12:01:31.162Z,99649.84
2023-03-26T12:02:35.569Z,99659.38
2023-03-26T12:03:30.208Z,99651.53
2023-03-26T12:04:35.394Z,99652.41
2023-03-26T12:05:33.330Z,99655.00
2023-03-26T12:06:28.750Z,99660.94
2023-03-26T12:07:31.898Z,99654.00
2023-03-26T12:08:43.591Z,99659.16
2023-03-26T12:10:18.446Z,99653.06
2023-03-26T12:11:12.454Z,99655.78
2023-03-26T12:12:06.097Z,99654.94
2023-03-26T12:13:02.848Z,99661.97
2023-03-26T12:14:05.652Z,99649.88
2023-03-26T12:14:58.878Z,99655.13
2023-03-26T12:15:50.726Z,99650.84
2023-03-26T12:16:59.693Z,99646.47
2023-03-26T12:17:56.255Z,99645.63
2023-03-26T12:19:05.326Z,99643.03
2023-03-26T12:19:57.048Z,99643.97
2023-03-26T12:20:49.361Z,99640.56
2023-03-26T12:21:52.309Z,99642.31
2023-03-26T12:22:47.823Z,99644.94
2023-03-26T12:23:44.307Z,99647.53
2023-03-26T12:24:36.299Z,99637.97
2023-03-26T12:25:29.276Z,99645.81
2023-03-26T12:26:34.105Z,99638.84
2023-03-26T12:27:31.019Z,99644.06
2023-03-26T12:28:23.323Z,99647.53
2023-03-26T12:29:18.708Z,99642.34
2023-03-26T12:30:19.958Z,99644.94
2023-03-26T12:31:18.155Z,99636.28
2023-03-26T12:32:14.471Z,99637.13
2023-03-26T12:33:16.351Z,99640.63
2023-03-26T12:34:17.516Z,99648.41
2023-03-26T12:35:30.641Z,99641.47
2023-03-26T12:36:33.128Z,99643.22
2023-03-26T12:37:39.444Z,99639.72
2023-03-26T12:38:37.706Z,99641.47
2023-03-26T12:40:10.169Z,99635.38
2023-03-26T12:40:46.781Z,99640.56
2023-03-26T12:44:42.158Z,99638.78
2023-03-26T12:44:46.701Z,99636.16
2023-03-26T12:44:48.637Z,99637.06
2023-03-26T12:45:40.666Z,99637.00
2023-03-26T12:47:57.074Z,99643.91
2023-03-26T12:48:00.104Z,99642.22
2023-03-26T12:48:59.898Z,99638.69
2023-03-26T12:49:53.498Z,99644.81
2023-03-26T12:50:57.450Z,99641.38
2023-03-26T12:52:15.551Z,99642.22
2023-03-26T12:53:56.572Z,99642.22
2023-03-26T12:55:11.888Z,99637.06
2023-03-26T12:56:19.753Z,99632.72
2023-03-26T12:57:26.702Z,99641.38
2023-03-26T12:58:28.403Z,99648.34
2023-03-26T13:00:08.690Z,99642.28
2023-03-26T13:01:26.369Z,99645.75
2023-03-26T13:02:44.376Z,99637.94
2023-03-26T13:03:59.418Z,99641.41
2023-03-26T13:05:09.334Z,99638.00
2023-03-26T13:06:19.282Z,99646.59
2023-03-26T13:07:16.696Z,99641.44
2023-03-26T13:08:14.352Z,99653.63
2023-03-26T13:09:33.225Z,99650.16
2023-03-26T13:10:50.300Z,99651.91
2023-03-26T13:12:03.184Z,99657.09
2023-03-26T13:13:16.829Z,99646.69
2023-03-26T13:14:30.499Z,99650.13
2023-03-26T13:15:46.884Z,99653.63
2023-03-26T13:16:52.550Z,99646.69
2023-03-26T13:18:04.409Z,99654.50
2023-03-26T13:19:01.562Z,99656.25
2023-03-26T13:19:52.978Z,99653.66
2023-03-26T13:21:08.884Z,99659.72
2023-03-26T13:22:19.230Z,99656.22
2023-03-26T13:23:23.261Z,99656.22
2023-03-26T13:24:42.303Z,99663.16
2023-03-26T13:26:00.109Z,99657.06
2023-03-26T13:27:16.952Z,99667.47
2023-03-26T13:28:40.374Z,99660.50
2023-03-26T13:29:46.272Z,99669.13
2023-03-26T13:30:50.704Z,99670.81
2023-03-26T13:32:02.088Z,99665.53
2023-03-26T13:33:30.257Z,99663.75
2023-03-26T13:34:46.586Z,99670.66
2023-03-26T13:36:21.730Z,99662.88
2023-03-26T13:37:30.813Z,99672.47
2023-03-26T13:39:04.608Z,99662.13
2023-03-26T13:40:03.523Z,99662.22
2023-03-26T13:41:09.447Z,99664.00
2023-03-26T13:42:18.555Z,99667.47
2023-03-26T13:43:51.101Z,99669.25
2023-03-26T13:45:04.821Z,99667.50
2023-03-26T13:46:12.830Z,99667.53
2023-03-26T13:47:44.895Z,99666.59
2023-03-26T13:49:19.793Z,99671.81
2023-03-26T13:50:28.708Z,99673.53
2023-03-26T13:51:40.883Z,99666.56
2023-03-26T13:52:44.094Z,99670.91
2023-03-26T13:54:05.212Z,99669.13
2023-03-26T13:55:15.612Z,99676.88
2023-03-26T13:56:15.622Z,99673.44
2023-03-26T13:57:24.970Z,99667.41
2023-03-26T13:58:36.275Z,99676.97
2023-03-26T13:59:54.593Z,99674.34
2023-03-26T14:00:56.008Z,99673.50
2023-03-26T14:02:00.196Z,99674.38
2023-03-26T14:03:23.798Z,99676.97
2023-03-26T14:04:23.572Z,99682.22
2023-03-26T14:05:30.630Z,99679.66
2023-03-26T14:06:46.631Z,99678.78
2023-03-26T14:08:11.519Z,99679.66
2023-03-26T14:09:17.742Z,99680.56
2023-03-26T14:10:30.599Z,99680.56
2023-03-26T14:11:51.427Z,99684.91
2023-03-26T14:12:56.258Z,99683.16
2023-03-26T14:13:52.392Z,99683.19
2023-03-26T14:14:56.066Z,99681.44
2023-03-26T14:15:57.803Z,99690.09
2023-03-26T14:16:59.085Z,99694.38
2023-03-26T14:18:00.335Z,99693.53
2023-03-26T14:19:33.888Z,99702.19
2023-03-26T14:20:56.574Z,99691.84
2023-03-26T14:22:24.910Z,99692.69
2023-03-26T14:23:35.023Z,99703.13
2023-03-26T14:24:51.594Z,99702.25
2023-03-26T14:26:10.390Z,99695.28
2023-03-26T14:27:20.208Z,99694.44
2023-03-26T14:28:28.747Z,99702.25
2023-03-26T14:29:38.420Z,99703.09
2023-03-26T14:31:05.914Z,99701.38
2023-03-26T14:32:42.357Z,99704.78
2023-03-26T14:33:53.553Z,99706.50
2023-03-26T14:34:55.043Z,99703.06
2023-03-26T14:35:55.392Z,99701.31
2023-03-26T14:37:27.397Z,99703.94
2023-03-26T14:38:41.886Z,99712.63
2023-03-26T14:39:52.092Z,99711.75
2023-03-26T14:41:13.433Z,99716.09
2023-03-26T14:42:24.451Z,99707.41
2023-03-26T14:43:36.615Z,99720.38
2023-03-26T14:44:48.142Z,99726.47
2023-03-26T14:45:49.975Z,99726.47
2023-03-26T14:46:50.696Z,99714.31
2023-03-26T14:48:11.623Z,99719.47
2023-03-26T14:49:03.097Z,99715.13
2023-03-26T14:50:08.338Z,99722.94
2023-03-26T14:51:15.380Z,99725.56
2023-03-26T14:52:24.913Z,99714.25
2023-03-26T14:53:29.671Z,99724.66
2023-03-26T14:54:27.890Z,99729.00
2023-03-26T14:55:35.268Z,99736.72
2023-03-26T14:56:29.945Z,99731.50
2023-03-26T14:57:47.292Z,99729.78
2023-03-26T14:59:24.679Z,99733.25
2023-03-26T15:00:32.815Z,99737.59
2023-03-26T15:01:40.278Z,99739.41
2023-03-26T15:03:04.032Z,99744.63
2023-03-26T15:04:01.451Z,99747.19
2023-03-26T15:05:30.549Z,99746.25
2023-03-26T15:06:40.417Z,99746.19
2023-03-26T15:07:52.571Z,99746.03
2023-03-26T15:09:09.824Z,99749.50
2023-03-26T15:10:21.446Z,99758.19
2023-03-26T15:11:51.778Z,99761.56
2023-03-26T15:12:53.233Z,99757.06
2023-03-26T15:13:54.742Z,99763.22
2023-03-26T15:15:05.221Z,99758.06
2023-03-26T15:16:12.692Z,99769.25
2023-03-26T15:17:54.677Z,99767.47
2023-03-26T15:19:13.073Z,99766.63
2023-03-26T15:20:26.321Z,99769.34
2023-03-26T15:21:55.690Z,99769.41
2023-03-26T15:23:05.983Z,99775.56
2023-03-26T15:24:36.788Z,99771.38
2023-03-26T15:25:53.298Z,99775.56
2023-03-26T15:27:22.691Z,99778.19
2023-03-26T15:28:16.820Z,99780.81
2023-03-26T15:29:39.104Z,99776.44
2023-03-26T15:31:13.762Z,99779.78
2023-03-26T15:32:30.112Z,99784.91
2023-03-26T15:33:43.868Z,99783.09
2023-03-26T15:35:06.066Z,99789.97
2023-03-26T15:36:26.242Z,99785.59
2023-03-26T15:37:46.232Z,99786.19
2023-03-26T15:39:03.552Z,99787.06
2023-03-26T15:40:16.407Z,99790.53
2023-03-26T15:41:32.328Z,99792.38
2023-03-26T15:42:56.058Z,99793.16
2023-03-26T15:44:23.892Z,99798.31
2023-03-26T15:45:33.862Z,99807.00
2023-03-26T15:46:37.831Z,99802.66
2023-03-26T15:48:03.647Z,99803.41
2023-03-26T15:49:24.653Z,99806.00
2023-03-26T15:51:27.891Z,99817.25
2023-03-26T15:52:36.280Z,99817.34
2023-03-26T15:53:53.835Z,99812.97
2023-03-26T15:54:59.477Z,99824.19
2023-03-26T15:56:16.210Z,99825.03
2023-03-26T15:57:32.446Z,99824.16
2023-03-26T15:59:01.979Z,99818.88
2023-03-26T16:00:15.069Z,99822.38
2023-03-26T16:01:35.466Z,99825.06
2023-03-26T16:02:43.334Z,99826.66
2023-03-26T16:03:54.473Z,99825.72
2023-03-26T16:04:55.206Z,99834.44
2023-03-26T16:06:11.288Z,99830.94
2023-03-26T16:07:13.280Z,99831.81
2023-03-26T16:08:26.093Z,99835.31
2023-03-26T16:09:34.062Z,99839.72
2023-03-26T16:10:41.903Z,99836.25
2023-03-26T16:11:42.755Z,99844.00
2023-03-26T16:12:55.856Z,99850.91
2023-03-26T16:14:17.958Z,99846.44
2023-03-26T16:15:25.841Z,99848.06
2023-03-26T16:16:22.810Z,99852.41
2023-03-26T16:17:20.792Z,99851.44
2023-03-26T16:18:15.413Z,99853.13
2023-03-26T16:19:19.521Z,99855.72
2023-03-26T16:20:31.109Z,99853.97
2023-03-26T16:21:32.858Z,99850.44
2023-03-26T16:22:55.971Z,99857.41
2023-03-26T16:23:48.172Z,99861.72
2023-03-26T16:25:28.644Z,99855.63
2023-03-26T16:26:49.731Z,99865.94
2023-03-26T16:27:41.829Z,99867.72
2023-03-26T16:29:04.571Z,99872.94
2023-03-26T16:30:14.518Z,99870.19
2023-03-26T16:31:23.623Z,99864.19
2023-03-26T16:32:48.641Z,99872.75
2023-03-26T16:34:05.712Z,99877.16
2023-03-26T16:35:36.871Z,99877.13
2023-03-26T16:36:35.633Z,99881.50
2023-03-26T16:37:36.248Z,99884.94
2023-03-26T16:38:50.288Z,99891.06
2023-03-26T16:39:44.401Z,99884.09
2023-03-26T16:41:00.275Z,99887.53
2023-03-26T16:42:06.401Z,99891.03
2023-03-26T16:43:17.232Z,99899.63
2023-03-26T16:44:25.767Z,99899.63
2023-03-26T16:45:34.414Z,99901.34
2023-03-26T16:47:03.961Z,99907.28
2023-03-26T16:47:55.474Z,99903.03
2023-03-26T16:48:56.484Z,99912.53
2023-03-26T16:50:08.737Z,99908.97
2023-03-26T16:51:36.718Z,99915.91
2023-03-26T16:52:44.050Z,99918.38
2023-03-26T16:53:45.898Z,99919.25
2023-03-26T16:55:03.786Z,99918.38
2023-03-26T16:56:22.268Z,99935.69
2023-03-26T16:57:43.624Z,99929.53
2023-03-26T16:58:56.121Z,99928.59
2023-03-26T17:00:13.805Z,99933.72
2023-03-26T17:01:56.314Z,99935.47
2023-03-26T17:02:54.092Z,99941.41
2023-03-26T17:03:58.669Z,99942.34
2023-03-26T17:05:20.961Z,99942.34
2023-03-26T17:06:33.765Z,99947.53
2023-03-26T17:07:48.041Z,99947.50
2023-03-26T17:09:07.815Z,99948.28
2023-03-26T17:10:31.724Z,99950.00
2023-03-26T17:12:00.024Z,99960.28
2023-03-26T17:13:17.247Z,99960.22
2023-03-26T17:14:25.606Z,99963.56
2023-03-26T17:15:32.275Z,99964.44
2023-03-26T17:16:46.026Z,99964.44
2023-03-26T17:17:59.177Z,99969.63
2023-03-26T17:19:13.324Z,99980.00
2023-03-26T17:20:32.749Z,99974.88
2023-03-26T17:21:53.685Z,99971.44
2023-03-26T17:22:52.058Z,99988.56
2023-03-26T17:24:16.282Z,99984.22
2023-03-26T17:25:29.730Z,99991.94
2023-03-26T17:26:46.959Z,99987.63
2023-03-26T17:27:44.821Z,99996.25
2023-03-26T17:28:55.044Z,99999.63
2023-03-26T17:30:21.776Z,100005.81
2023-03-26T17:31:37.600Z,100001.50
2023-03-26T17:33:06.332Z,100004.81
2023-03-26T17:34:36.430Z,100012.53
2023-03-26T17:35:41.953Z,100032.47
2023-03-26T17:36:43.683Z,100015.09
2023-03-26T17:37:43.580Z,100019.28
2023-03-26T17:38:45.286Z,100025.28
2023-03-26T17:39:43.682Z,100026.94
2023-03-26T17:40:49.226Z,100033.91
2023-03-26T17:41:55.386Z,100028.63
2023-03-26T17:43:09.624Z,100031.13
2023-03-26T17:44:39.708Z,100036.19
2023-03-26T17:45:37.386Z,100045.72
2023-03-26T17:46:39.546Z,100042.16
2023-03-26T17:47:56.463Z,100044.66
2023-03-26T17:48:58.077Z,100055.81
2023-03-26T17:50:00.657Z,100050.63
2023-03-26T17:51:31.534Z,100048.91
2023-03-26T17:52:48.079Z,100050.59
2023-03-26T17:53:41.420Z,100055.69
2023-03-26T17:54:41.087Z,100053.09
2023-03-26T17:55:38.059Z,100066.94
2023-03-26T17:56:32.401Z,100061.78
2023-03-26T17:57:43.465Z,100074.81
2023-03-26T17:58:39.721Z,100067.09
2023-03-26T17:59:32.715Z,100075.66
2023-03-26T18:00:31.612Z,100074.78
2023-03-26T18:01:37.022Z,100079.06
2023-03-26T18:02:42.130Z,100082.56
2023-03-26T18:03:54.381Z,100081.72
2023-03-26T18:04:52.730Z,100082.56
2023-03-26T18:05:47.094Z,100081.72
2023-03-26T18:06:58.486Z,100091.25
2023-03-26T18:07:52.951Z,100090.47
2023-03-26T18:08:58.300Z,100100.88
2023-03-26T18:10:09.555Z,100095.66
2023-03-26T18:11:25.754Z,100105.88
2023-03-26T18:12:41.995Z,100107.81
2023-03-26T18:14:08.491Z,100112.03
2023-03-26T18:15:14.927Z,100118.91
2023-03-26T18:16:16.744Z,100112.03
2023-03-26T18:17:08.594Z,100115.47
2023-03-26T18:18:18.158Z,100121.38
2023-03-26T18:19:18.896Z,100124.00
2023-03-26T18:20:20.965Z,100128.34
2023-03-26T18:21:30.061Z,100124.00
2023-03-26T18:22:30.325Z,100138.63
2023-03-26T18:23:44.175Z,100136.72
2023-03-26T18:24:40.169Z,100134.19
2023-03-26T18:25:33.936Z,100141.13
2023-03-26T18:26:40.174Z,100143.81
2023-03-26T18:27:41.027Z,100138.63
2023-03-26T18:28:40.657Z,100145.41
2023-03-26T18:29:35.545Z,100146.22
2023-03-26T18:30:27.222Z,100142.75
2023-03-26T18:31:23.430Z,100143.66
2023-03-26T18:32:22.180Z,100152.31
2023-03-26T18:33:15.678Z,100160.84
2023-03-26T18:34:20.265Z,100148.66
2023-03-26T18:35:20.147Z,100160.78
2023-03-26T18:36:13.613Z,100155.63
2023-03-26T18:37:08.369Z,100162.47
2023-03-26T18:38:00.928Z,100160.00
2023-03-26T18:38:58.213Z,100165.97
2023-03-26T18:40:21.368Z,100164.91
2023-03-26T18:41:27.383Z,100167.59
2023-03-26T18:42:25.278Z,100170.09
2023-03-26T18:43:32.539Z,100170.09
2023-03-26T18:44:28.371Z,100177.78
2023-03-26T18:45:33.721Z,100179.47
2023-03-26T18:46:25.666Z,100185.44
2023-03-26T18:47:18.601Z,100183.78
2023-03-26T18:48:19.006Z,100180.31
2023-03-26T18:49:16.562Z,100186.28
2023-03-26T18:50:17.145Z,100189.63
2023-03-26T18:51:09.746Z,100190.47
2023-03-26T18:52:01.598Z,100190.47
2023-03-26T18:52:58.904Z,100194.66
2023-03-26T18:53:56.747Z,100193.81
2023-03-26T18:54:52.611Z,100194.72
2023-03-26T18:55:44.686Z,100203.47
2023-03-26T18:56:39.216Z,100208.44
2023-03-26T18:57:31.422Z,100198.91
2023-03-26T18:58:39.347Z,100205.91
2023-03-26T18:59:41.034Z,100211.91
2023-03-26T19:00:33.534Z,100214.38
2023-03-26T19:01:31.867Z,100216.94
2023-03-26T19:02:26.151Z,100214.31
2023-03-26T19:03:22.447Z,100216.09
2023-03-26T19:04:17.630Z,100216.03
2023-03-26T19:05:15.437Z,100220.22
2023-03-26T19:06:11.392Z,100224.44
2023-03-26T19:07:09.912Z,100223.78
2023-03-26T19:08:06.531Z,100221.22
2023-03-26T19:08:59.179Z,100217.56
2023-03-26T19:09:56.071Z,100214.31
2023-03-26T19:10:50.720Z,100241.91
2023-03-26T19:11:43.086Z,100233.31
2023-03-26T19:12:35.722Z,100241.84
2023-03-26T19:13:28.405Z,100226.38
2023-03-26T19:14:20.404Z,100235.81
2023-03-26T19:15:16.941Z,100236.53
2023-03-26T19:16:22.717Z,100231.34
2023-03-26T19:17:14.283Z,100238.88
2023-03-26T19:18:13.961Z,100238.78
2023-03-26T19:19:07.925Z,100244.06
2023-03-26T19:20:02.832Z,100252.81
2023-03-26T19:20:59.330Z,100249.38
2023-03-26T19:21:51.948Z,100268.34
2023-03-26T19:22:46.336Z,100257.06
2023-03-26T19:23:41.992Z,100257.84
2023-03-26T19:24:34.665Z,100256.91
2023-03-26T19:25:42.007Z,100267.25
2023-03-26T19:26:36.656Z,100282.78
2023-03-26T19:27:29.299Z,100268.34
2023-03-26T19:28:27.925Z,100263.22
2023-03-26T19:29:28.732Z,100272.69
2023-03-26T19:30:31.721Z,100263.06
2023-03-26T19:31:34.347Z,100265.66
2023-03-26T19:32:32.706Z,100268.19
2023-03-26T19:33:34.075Z,100274.25
2023-03-26T19:34:35.292Z,100270.59
2023-03-26T19:35:27.122Z,100275.00
2023-03-26T19:36:30.318Z,100283.72
2023-03-26T19:37:25.185Z,100284.56
2023-03-26T19:38:29.365Z,100286.19
2023-03-26T19:40:34.709Z,100295.88
2023-03-26T19:41:40.962Z,100300.16
2023-03-26T19:42:43.233Z,100295.75
2023-03-26T19:43:36.156Z,100300.06
2023-03-26T19:44:30.232Z,100296.56
2023-03-26T19:45:23.098Z,100295.75
2023-03-26T19:46:15.130Z,100299.16
2023-03-26T19:47:17.141Z,100313.81
2023-03-26T19:48:15.601Z,100301.72
2023-03-26T19:49:07.466Z,100300.81
2023-03-26T19:50:03.776Z,100300.81
2023-03-26T19:51:04.663Z,100304.94
2023-03-26T19:51:18.056Z,100292.31
2023-03-26T19:52:16.080Z,100312.69
2023-03-26T19:53:21.717Z,100309.19
2023-03-26T19:54:16.621Z,100313.59
2023-03-26T19:55:10.037Z,100323.19
2023-03-26T19:56:13.566Z,100317.25
2023-03-26T19:57:05.458Z,100318.03
2023-03-26T19:57:57.674Z,100325.75
2023-03-26T19:58:52.407Z,100313.59
2023-03-26T19:59:43.844Z,100322.28
2023-03-26T20:00:42.298Z,100312.75
2023-03-26T20:01:34.076Z,100330.81
2023-03-26T20:02:26.833Z,100327.44
2023-03-26T20:03:27.269Z,100332.47
2023-03-26T20:04:18.821Z,100334.13
2023-03-26T20:05:22.876Z,100340.16
2023-03-26T20:06:23.712Z,100334.97
2023-03-26T20:07:35.716Z,100338.38
2023-03-26T20:08:27.982Z,100346.25
2023-03-26T20:09:19.551Z,100336.81
2023-03-26T20:10:12.246Z,100336.94
2023-03-26T20:11:03.888Z,100341.16
2023-03-26T20:11:55.563Z,100342.66
2023-03-26T20:12:46.982Z,100353.97
2023-03-26T20:13:38.459Z,100343.53
2023-03-26T20:14:32.375Z,100345.22
2023-03-26T20:15:32.965Z,100356.47
2023-03-26T20:16:30.166Z,100352.16
2023-03-26T20:17:22.270Z,100348.00
2023-03-26T20:18:14.049Z,100360.00
2023-03-26T20:19:05.649Z,100352.22
2023-03-26T20:19:57.054Z,100348.75
2023-03-26T20:20:48.538Z,100352.91
2023-03-26T20:21:41.176Z,100355.69
2023-03-26T20:22:32.632Z,100362.56
2023-03-26T20:23:25.620Z,100360.75
2023-03-26T20:24:18.751Z,100360.75
2023-03-26T20:26:15.770Z,100364.25
2023-03-26T20:27:07.538Z,100362.41
2023-03-26T20:27:59.252Z,100370.91
2023-03-26T20:28:53.520Z,100369.06
2023-03-26T20:29:45.823Z,100366.47
2023-03-26T20:30:38.118Z,100362.88
2023-03-26T20:31:29.993Z,100371.66
2023-03-26T20:32:26.407Z,100368.94
2023-03-26T20:33:25.516Z,100379.34
2023-03-26T20:34:23.652Z,100375.19
2023-03-26T20:35:36.015Z,100384.75
2023-03-26T20:36:33.307Z,100385.53
2023-03-26T20:37:26.338Z,100395.84
2023-03-26T20:38:19.867Z,100395.03
2023-03-26T20:39:13.281Z,100395.00
2023-03-26T20:40:07.217Z,100393.19
2023-03-26T20:40:59.509Z,100397.44
2023-03-26T20:41:54.044Z,100402.50
2023-03-26T20:42:46.039Z,100408.63
2023-03-26T20:43:37.466Z,100405.97
2023-03-26T20:44:29.229Z,100404.28
2023-03-26T20:45:22.678Z,100406.66
2023-03-26T20:46:20.025Z,100412.59
2023-03-26T20:47:12.582Z,100412.59
2023-03-26T20:48:04.289Z,100417.03
2023-03-26T20:48:57.044Z,100413.53
2023-03-26T20:49:48.736Z,100419.78
2023-03-26T20:50:50.327Z,100418.78
2023-03-26T20:51:43.850Z,100415.91
2023-03-26T20:52:35.442Z,100423.66
2023-03-26T20:53:28.029Z,100426.97
2023-03-26T20:54:25.104Z,100421.91
2023-03-26T20:55:21.614Z,100426.13
2023-03-26T20:56:16.878Z,100427.69
2023-03-26T20:57:13.429Z,100437.22
2023-03-26T20:58:05.182Z,100432.16
2023-03-26T20:59:09.712Z,100439.16
2023-03-26T21:00:02.282Z,100435.50
2023-03-26T21:00:55.380Z,100436.25
2023-03-26T21:01:48.601Z,100439.84
2023-03-26T21:02:42.036Z,100441.44
2023-03-26T21:03:34.747Z,100445.63
2023-03-26T21:04:27.232Z,100441.94
2023-03-26T21:05:24.177Z,100448.94
2023-03-26T21:06:15.619Z,100438.75
2023-03-26T21:07:17.563Z,100449.88
2023-03-26T21:08:18.094Z,100448.94
2023-03-26T21:09:15.094Z,100461.91
2023-03-26T21:10:07.418Z,100462.72
2023-03-26T21:11:02.119Z,100455.19
2023-03-26T21:12:07.893Z,100460.16
2023-03-26T21:13:40.724Z,100464.41
2023-03-26T21:14:41.169Z,100468.06
2023-03-26T21:15:33.594Z,100473.97
2023-03-26T21:16:25.613Z,100468.59
2023-03-26T21:17:20.821Z,100465.81
2023-03-26T21:18:12.727Z,100481.41
2023-03-26T21:19:04.578Z,100475.22
2023-03-26T21:19:57.739Z,100497.84
2023-03-26T21:21:21.800Z,100490.94
2023-03-26T21:22:51.737Z,100486.41
2023-03-26T21:23:59.102Z,100486.25
2023-03-26T21:25:01.332Z,100491.59
2023-03-26T21:26:48.709Z,100495.94
2023-03-26T21:28:10.668Z,100495.09
2023-03-26T21:29:02.805Z,100497.69
2023-03-26T21:29:56.048Z,100496.66
2023-03-26T21:30:47.736Z,100494.69
2023-03-26T21:31:39.937Z,100506.09
2023-03-26T21:32:32.031Z,100505.31
2023-03-26T21:33:23.532Z,100511.25
2023-03-26T21:34:16.986Z,100509.56
2023-03-26T21:35:09.520Z,100514.84
2023-03-26T21:36:01.718Z,100522.28
2023-03-26T21:36:53.821Z,100517.84
2023-03-26T21:37:48.437Z,100513.47
2023-03-26T21:38:43.420Z,100521.22
2023-03-26T21:39:35.281Z,100517.72
2023-03-26T21:40:28.108Z,100527.19
2023-03-26T21:41:36.388Z,100523.59
2023-03-26T21:42:29.180Z,100529.63
2023-03-26T21:43:22.138Z,100534.75
2023-03-26T21:44:14.764Z,100531.25
2023-03-26T21:45:06.955Z,100533.84
2023-03-26T21:45:59.170Z,100535.59
2023-03-26T21:46:51.031Z,100545.13
2023-03-26T21:47:43.476Z,100544.19
2023-03-26T21:48:35.527Z,100551.88